Time;durP1;ratioP1;P1;durP2;ratioP2;P2;SDS_P1;SDS_P2;PMS_P1;PMS_P2;Temp;Humidity;BMP_temperature;BMP_pressure;BME280_temperature;BME280_humidity;BME280_pressure;Samples;Min_cycle;Max_cycle;Signal;HPM_P1;HPM_P2
2022/11/13 00:00:23;;;;;;;15.43;8.50;;;;;;;11.49;64.15;102612.03;5129667;27;20047;-63
2022/11/13 00:02:51;;;;;;;15.05;8.57;;;;;;;11.48;64.17;102600.44;5140280;27;20049;-63
2022/11/13 00:05:19;;;;;;;14.50;8.45;;;;;;;11.47;64.12;102608.69;5122582;28;20048;-63
2022/11/13 00:07:46;;;;;;;16.50;9.40;;;;;;;11.47;63.99;102601.44;5132913;27;20039;-62
2022/11/13 00:10:15;;;;;;;18.88;8.65;;;;;;;11.48;64.10;102594.19;5132368;28;20396;-63
2022/11/13 00:12:44;;;;;;;12.07;8.02;;;;;;;11.46;64.05;102605.16;5134800;27;20047;-63
2022/11/13 00:15:11;;;;;;;15.52;8.23;;;;;;;11.45;63.98;102600.78;5141871;28;20062;-63
2022/11/13 00:17:39;;;;;;;13.30;7.38;;;;;;;11.45;63.96;102590.03;5142520;28;20050;-64
2022/11/13 00:20:07;;;;;;;14.13;8.13;;;;;;;11.46;64.04;102598.94;5138801;28;20043;-63
2022/11/13 00:22:35;;;;;;;18.80;9.27;;;;;;;11.46;63.85;102594.38;5131093;28;20059;-62
2022/11/13 00:25:03;;;;;;;11.63;7.63;;;;;;;11.46;63.96;102596.25;5133093;28;20106;-63
2022/11/13 00:27:31;;;;;;;15.18;8.20;;;;;;;11.45;63.87;102589.19;5142205;28;20031;-63
2022/11/13 00:30:00;;;;;;;13.73;7.65;;;;;;;11.44;63.80;102590.22;5140363;28;20051;-63
2022/11/13 00:32:27;;;;;;;14.90;7.72;;;;;;;11.43;63.95;102586.69;5136381;28;20046;-63
2022/11/13 00:34:55;;;;;;;13.20;7.50;;;;;;;11.42;63.90;102587.69;5130009;28;20051;-63
2022/11/13 00:37:23;;;;;;;10.02;7.18;;;;;;;11.41;63.85;102578.78;5129154;28;20051;-63
2022/11/13 00:39:51;;;;;;;12.07;7.70;;;;;;;11.42;63.68;102579.63;5141687;28;20047;-63
2022/11/13 00:42:25;;;;;;;12.88;7.63;;;;;;;11.43;63.59;102572.38;5134801;28;20043;-63
2022/11/13 00:44:53;;;;;;;13.27;7.25;;;;;;;11.40;63.80;102569.03;5144473;27;20110;-63
2022/11/13 00:47:22;;;;;;;11.30;7.15;;;;;;;11.40;63.80;102570.91;5139250;27;20059;-63
2022/11/13 00:49:50;;;;;;;11.88;7.25;;;;;;;11.37;63.59;102560.50;5136211;27;20047;-63
2022/11/13 00:52:18;;;;;;;11.90;7.60;;;;;;;11.36;63.72;102562.34;5144978;27;20127;-63
2022/11/13 00:54:45;;;;;;;15.35;7.63;;;;;;;11.35;63.60;102559.84;5145985;27;20491;-63
2022/11/13 00:57:13;;;;;;;12.68;7.35;;;;;;;11.35;63.68;102567.91;5145069;27;20043;-63
2022/11/13 00:59:41;;;;;;;16.02;7.10;;;;;;;11.35;63.50;102557.16;5144612;27;20062;-63
2022/11/13 01:02:09;;;;;;;13.57;7.50;;;;;;;11.34;63.63;102550.94;5145098;27;20047;-63
2022/11/13 01:04:38;;;;;;;11.50;7.53;;;;;;;11.33;63.42;102553.81;5141036;27;20044;-63
2022/11/13 01:07:05;;;;;;;10.50;7.15;;;;;;;11.32;63.32;102558.34;5131991;27;20055;-63
2022/11/13 01:09:33;;;;;;;9.70;6.43;;;;;;;11.31;63.42;102562.06;5140692;27;20040;-63
2022/11/13 01:12:01;;;;;;;11.55;7.40;;;;;;;11.30;63.42;102555.03;5125513;28;20336;-63
2022/11/13 01:14:28;;;;;;;13.15;7.25;;;;;;;11.29;63.46;102558.72;5143064;27;20061;-63
2022/11/13 01:16:56;;;;;;;11.98;7.38;;;;;;;11.29;63.54;102555.19;5133888;27;20055;-63
2022/11/13 01:19:24;;;;;;;11.38;6.68;;;;;;;11.27;63.51;102550.00;5141556;27;20047;-64
2022/11/13 01:21:53;;;;;;;10.68;6.10;;;;;;;11.26;63.45;102555.56;5136936;27;20051;-63
2022/11/13 01:24:21;;;;;;;10.95;7.20;;;;;;;11.28;63.30;102545.47;5145293;27;20050;-63
2022/11/13 01:26:48;;;;;;;8.68;5.97;;;;;;;11.26;63.42;102539.44;5145435;27;20054;-63
2022/11/13 01:29:16;;;;;;;10.20;6.70;;;;;;;11.26;63.28;102539.44;5142987;27;20047;-63
2022/11/13 01:31:44;;;;;;;10.35;6.50;;;;;;;11.24;63.42;102538.78;5144865;27;20385;-63
2022/11/13 01:34:11;;;;;;;13.60;6.45;;;;;;;11.23;63.13;102539.78;5145489;27;20058;-64
2022/11/13 01:36:39;;;;;;;10.75;6.30;;;;;;;11.24;63.16;102546.84;5138080;27;20047;-63
2022/11/13 01:39:10;;;;;;;11.38;6.70;;;;;;;11.22;63.41;102547.03;5144255;27;20455;-63
2022/11/13 01:41:38;;;;;;;9.82;6.82;;;;;;;11.21;63.12;102545.34;5145520;27;20059;-63
2022/11/13 01:44:11;;;;;;;11.02;6.75;;;;;;;11.21;63.16;102547.22;5142143;27;20044;-63
2022/11/13 01:46:41;;;;;;;12.63;6.78;;;;;;;11.17;62.82;102537.84;5124180;28;20054;-63
2022/11/13 01:49:28;;;;;;;10.45;6.65;;;;;;;11.17;63.27;102533.28;5138613;27;20047;-62
2022/11/13 01:52:01;;;;;;;9.73;6.00;;;;;;;11.17;63.18;102540.53;5129208;27;20384;-63
2022/11/13 01:54:34;;;;;;;15.63;6.88;;;;;;;11.16;63.01;102526.25;5141691;27;20118;-63
2022/11/13 01:57:05;;;;;;;10.90;6.57;;;;;;;11.14;63.16;102517.53;5144254;27;20055;-64
2022/11/13 01:59:38;;;;;;;9.95;5.88;;;;;;;11.14;63.03;102514.00;5134953;27;20059;-63
2022/11/13 02:02:06;;;;;;;10.27;6.50;;;;;;;11.12;62.99;102513.34;5141159;27;20062;-63
2022/11/13 02:04:34;;;;;;;8.70;5.80;;;;;;;11.02;62.98;102492.09;5145437;27;20063;-62
2022/11/13 02:07:06;;;;;;;9.95;6.53;;;;;;;11.11;62.72;102517.88;5140569;27;20052;-63
2022/11/13 02:09:37;;;;;;;9.73;6.22;;;;;;;11.11;62.78;102511.66;5138210;27;20051;-64
2022/11/13 02:12:06;;;;;;;11.00;6.32;;;;;;;11.09;62.83;102507.31;5144365;27;20082;-64
2022/11/13 02:14:38;;;;;;;11.02;5.70;;;;;;;11.09;62.81;102499.22;5143575;27;20043;-63
2022/11/13 02:17:08;;;;;;;9.65;6.05;;;;;;;11.06;62.83;102499.59;5144246;27;20043;-63
2022/11/13 02:19:39;;;;;;;12.35;5.88;;;;;;;11.05;62.82;102495.25;5137934;27;20326;-63
2022/11/13 02:22:15;;;;;;;9.60;5.80;;;;;;;11.05;62.80;102491.72;5144071;27;20152;-63
2022/11/13 02:24:46;;;;;;;9.57;5.57;;;;;;;11.05;62.94;102489.88;5137060;27;20054;-63
2022/11/13 02:27:27;;;;;;;9.43;6.13;;;;;;;11.05;62.61;102495.25;5144674;27;20081;-64
2022/11/13 02:29:54;;;;;;;9.35;5.30;;;;;;;11.04;62.76;102490.03;5138007;27;20069;-63
2022/11/13 02:32:22;;;;;;;6.90;5.40;;;;;;;11.03;62.69;102486.53;5123321;28;20405;-63
2022/11/13 02:34:50;;;;;;;11.77;6.13;;;;;;;11.03;62.77;102481.13;5143648;27;20059;-64
2022/11/13 02:37:18;;;;;;;10.73;5.70;;;;;;;11.02;62.73;102484.84;5144396;27;20047;-63
2022/11/13 02:39:47;;;;;;;9.63;5.82;;;;;;;11.01;62.71;102476.97;5139107;27;20039;-63
2022/11/13 02:42:14;;;;;;;10.48;5.55;;;;;;;11.00;62.71;102478.81;5144256;27;20070;-63
2022/11/13 02:44:42;;;;;;;10.15;5.32;;;;;;;11.00;62.64;102484.19;5142868;27;20046;-63
2022/11/13 02:47:10;;;;;;;9.70;5.63;;;;;;;11.00;62.82;102486.06;5136639;27;20059;-63
2022/11/13 02:49:37;;;;;;;9.65;5.28;;;;;;;10.99;62.65;102470.94;5142640;27;20051;-63
2022/11/13 02:52:05;;;;;;;9.05;5.28;;;;;;;10.98;62.58;102464.72;5143924;27;20047;-63
2022/11/13 02:54:33;;;;;;;8.73;5.25;;;;;;;10.97;62.58;102467.59;5135483;27;20042;-63
2022/11/13 02:57:02;;;;;;;10.40;5.25;;;;;;;10.96;62.70;102471.31;5143079;27;20043;-63
2022/11/13 02:59:29;;;;;;;8.68;5.00;;;;;;;10.96;62.69;102476.69;5143656;27;20039;-63
2022/11/13 03:01:57;;;;;;;11.32;5.47;;;;;;;10.95;62.63;102477.69;5140714;27;20086;-63
2022/11/13 03:04:25;;;;;;;9.57;5.13;;;;;;;10.96;62.51;102471.31;5134838;27;20063;-63
2022/11/13 03:07:10;;;;;;;7.90;5.05;;;;;;;10.94;62.52;102467.97;5131458;27;20058;-63
2022/11/13 03:09:38;;;;;;;8.68;5.20;;;;;;;10.93;62.59;102468.97;5142602;27;20058;-63
2022/11/13 03:12:09;;;;;;;8.30;5.70;;;;;;;10.93;62.59;102467.13;5143456;27;20074;-63
2022/11/13 03:14:36;;;;;;;9.77;4.97;;;;;;;10.92;62.53;102462.75;5142683;27;20062;-63
2022/11/13 03:17:04;;;;;;;10.27;5.15;;;;;;;10.91;62.50;102455.72;5135247;27;20055;-63
2022/11/13 03:19:32;;;;;;;9.23;5.25;;;;;;;10.90;62.60;102453.22;5143271;27;20051;-63
2022/11/13 03:22:00;;;;;;;10.00;5.45;;;;;;;10.89;62.36;102449.69;5130500;27;20052;-64
2022/11/13 03:24:27;;;;;;;8.60;5.53;;;;;;;10.88;62.45;102450.69;5140252;27;20066;-63
2022/11/13 03:26:55;;;;;;;9.93;5.88;;;;;;;10.86;62.36;102452.75;5141003;27;20047;-63
2022/11/13 03:29:24;;;;;;;6.93;4.53;;;;;;;10.87;62.49;102450.88;5143102;27;20043;-63
2022/11/13 03:31:52;;;;;;;8.43;5.63;;;;;;;10.77;62.18;102437.72;5128322;27;20047;-63
2022/11/13 03:34:20;;;;;;;6.10;4.47;;;;;;;10.86;62.45;102454.59;5143018;27;20073;-63
2022/11/13 03:36:47;;;;;;;8.68;5.05;;;;;;;10.86;62.50;102451.91;5141581;27;20047;-63
2022/11/13 03:39:15;;;;;;;8.95;5.13;;;;;;;10.84;62.46;102452.09;5138378;27;20047;-63
2022/11/13 03:41:43;;;;;;;9.27;5.00;;;;;;;10.86;62.37;102441.16;5134038;27;20051;-63
2022/11/13 03:44:11;;;;;;;7.90;4.78;;;;;;;10.84;62.38;102443.19;5143074;27;20054;-63
2022/11/13 03:46:40;;;;;;;10.43;5.20;;;;;;;10.84;62.39;102437.81;5136304;27;20131;-63
2022/11/13 03:49:08;;;;;;;10.52;5.07;;;;;;;10.83;62.34;102436.97;5137520;27;20147;-63
2022/11/13 03:51:36;;;;;;;7.35;4.65;;;;;;;10.83;62.45;102434.28;5129624;27;20048;-63
2022/11/13 03:54:03;;;;;;;6.43;4.55;;;;;;;10.81;62.46;102427.41;5136980;27;20039;-63
2022/11/13 03:56:31;;;;;;;7.32;4.63;;;;;;;10.81;62.39;102433.63;5141498;27;20412;-64
2022/11/13 03:58:59;;;;;;;7.70;5.03;;;;;;;10.81;62.41;102428.25;5133826;27;20046;-62
2022/11/13 04:01:26;;;;;;;7.72;4.72;;;;;;;10.80;62.44;102428.44;5133017;27;20042;-63
2022/11/13 04:03:55;;;;;;;7.82;4.72;;;;;;;10.82;62.29;102429.94;5142539;27;20047;-63
2022/11/13 04:06:23;;;;;;;6.15;3.92;;;;;;;10.81;62.27;102430.09;5140474;27;20043;-63
2022/11/13 04:08:51;;;;;;;8.65;4.70;;;;;;;10.81;62.34;102422.03;5138212;27;20151;-63
2022/11/13 04:11:18;;;;;;;6.00;4.43;;;;;;;10.79;62.15;102424.09;5140519;27;20051;-62
2022/11/13 04:13:46;;;;;;;6.50;4.28;;;;;;;10.79;62.31;102418.69;5142460;27;20078;-62
2022/11/13 04:16:14;;;;;;;8.23;4.85;;;;;;;10.76;62.45;102420.75;5137844;27;20050;-64
2022/11/13 04:18:41;;;;;;;6.43;4.40;;;;;;;10.75;62.39;102412.84;5139037;28;20047;-63
2022/11/13 04:21:10;;;;;;;8.63;5.00;;;;;;;10.76;62.31;102414.53;5121496;28;20051;-63
2022/11/13 04:23:38;;;;;;;7.65;4.38;;;;;;;10.74;62.22;102406.66;5132574;28;20479;-63
2022/11/13 04:26:06;;;;;;;6.35;4.13;;;;;;;10.75;62.32;102404.78;5141729;28;20047;-64
2022/11/13 04:28:33;;;;;;;7.47;5.18;;;;;;;10.75;62.31;102402.09;5142429;28;20043;-64
2022/11/13 04:31:01;;;;;;;7.97;3.80;;;;;;;10.75;62.06;102400.25;5141893;28;20047;-64
2022/11/13 04:33:29;;;;;;;6.50;3.90;;;;;;;10.73;62.34;102402.28;5132666;28;20169;-64
2022/11/13 04:35:56;;;;;;;7.68;4.32;;;;;;;10.73;62.29;102396.06;5140409;28;20058;-63
2022/11/13 04:38:25;;;;;;;6.80;4.07;;;;;;;10.72;62.22;102397.09;5141873;28;20047;-64
2022/11/13 04:42:47;;;;;;;6.60;4.25;;;;;;;10.70;62.39;102385.69;5141236;28;20063;-63
2022/11/13 04:43:40;;;;;;;6.85;4.13;;;;;;;10.69;62.31;102389.41;5141093;28;20051;-64
2022/11/13 04:46:08;;;;;;;8.05;4.32;;;;;;;10.69;62.38;102389.41;5140803;28;20090;-64
2022/11/13 04:48:36;;;;;;;8.35;5.20;;;;;;;10.67;62.38;102386.88;5142609;28;20047;-63
2022/11/13 04:51:04;;;;;;;6.97;4.45;;;;;;;10.68;62.05;102382.34;5130178;28;20043;-64
2022/11/13 04:53:34;;;;;;;6.03;3.85;;;;;;;10.68;62.26;102391.25;5142106;28;20053;-64
2022/11/13 04:56:02;;;;;;;5.55;3.92;;;;;;;10.67;62.20;102386.06;5141537;28;20047;-64
2022/11/13 04:58:29;;;;;;;7.00;4.65;;;;;;;10.65;62.15;102382.72;5140328;28;20059;-63
2022/11/13 05:00:57;;;;;;;7.72;4.82;;;;;;;10.63;62.36;102377.53;5133479;28;20053;-64
2022/11/13 05:03:25;;;;;;;6.13;3.90;;;;;;;10.64;62.50;102381.03;5142138;28;20059;-64
2022/11/13 05:05:52;;;;;;;7.28;4.78;;;;;;;10.63;62.16;102382.06;5138615;28;20039;-64
2022/11/13 05:08:20;;;;;;;10.13;5.07;;;;;;;10.63;62.20;102382.91;5141153;28;20043;-64
2022/11/13 05:10:49;;;;;;;7.38;4.57;;;;;;;10.62;62.10;102381.22;5129188;28;20070;-63
2022/11/13 05:13:17;;;;;;;7.32;4.78;;;;;;;10.61;62.10;102384.09;5136589;28;20062;-64
2022/11/13 05:15:44;;;;;;;9.27;4.63;;;;;;;10.61;62.08;102374.19;5137331;28;20065;-64
2022/11/13 05:18:12;;;;;;;6.40;4.07;;;;;;;10.60;61.81;102369.81;5140811;28;20043;-64
2022/11/13 05:20:40;;;;;;;5.05;3.83;;;;;;;10.60;62.20;102369.00;5142063;28;20132;-64
2022/11/13 05:23:08;;;;;;;6.80;4.25;;;;;;;10.58;61.99;102361.13;5142040;28;20043;-63
2022/11/13 05:25:35;;;;;;;6.80;4.18;;;;;;;10.58;62.15;102362.97;5140228;28;20043;-64
2022/11/13 05:28:05;;;;;;;6.53;3.78;;;;;;;10.58;62.08;102363.81;5138354;28;20054;-64
2022/11/13 05:30:32;;;;;;;6.13;4.00;;;;;;;10.56;62.11;102354.25;5133905;28;20521;-63
2022/11/13 05:33:00;;;;;;;7.47;4.00;;;;;;;10.56;62.11;102362.31;5129062;27;20069;-64
2022/11/13 05:35:28;;;;;;;6.53;4.07;;;;;;;10.55;62.00;102352.59;5145785;27;20047;-63
2022/11/13 05:37:55;;;;;;;6.10;4.07;;;;;;;10.55;61.86;102357.97;5143676;27;20059;-63
2022/11/13 05:40:23;;;;;;;5.60;4.00;;;;;;;10.53;61.87;102358.13;5143639;27;20057;-64
2022/11/13 05:42:52;;;;;;;6.88;4.20;;;;;;;10.52;61.77;102353.78;5144509;27;20130;-63
2022/11/13 05:45:22;;;;;;;5.65;3.97;;;;;;;10.52;61.98;102353.78;5126769;27;20043;-63
2022/11/13 05:47:50;;;;;;;6.85;4.20;;;;;;;10.50;62.04;102353.13;5131605;27;20788;-63
2022/11/13 05:50:19;;;;;;;7.28;4.55;;;;;;;10.51;61.90;102348.59;5144009;27;20057;-63
2022/11/13 05:52:47;;;;;;;6.55;3.92;;;;;;;10.50;61.94;102361.19;5144905;27;20146;-63
2022/11/13 05:55:15;;;;;;;9.88;4.40;;;;;;;10.47;61.63;102350.81;5136714;27;20542;-62
2022/11/13 05:57:43;;;;;;;7.90;4.50;;;;;;;10.48;61.79;102348.97;5134966;27;20058;-62
2022/11/13 06:00:12;;;;;;;5.75;3.95;;;;;;;10.46;61.87;102356.38;5144771;27;20054;-63
2022/11/13 06:02:41;;;;;;;7.13;4.07;;;;;;;10.46;61.80;102353.69;5133041;27;20061;-63
2022/11/13 06:05:09;;;;;;;6.90;4.22;;;;;;;10.46;61.80;102356.38;5145341;27;20043;-64
2022/11/13 06:07:36;;;;;;;6.85;4.05;;;;;;;10.46;61.88;102348.31;5143850;27;20043;-63
2022/11/13 06:10:05;;;;;;;6.70;3.78;;;;;;;10.55;61.41;102341.81;5139739;27;20074;-63
2022/11/13 06:12:32;;;;;;;8.55;4.18;;;;;;;10.69;61.04;102341.00;5142459;27;20051;-63
2022/11/13 06:15:00;;;;;;;5.90;3.88;;;;;;;10.87;60.20;102343.31;5141177;27;20047;-64
2022/11/13 06:17:28;;;;;;;6.18;4.30;;;;;;;10.96;59.96;102337.63;5141869;27;20047;-65
2022/11/13 06:19:57;;;;;;;6.00;3.63;;;;;;;11.07;59.48;102334.47;5144080;27;20315;-64
2022/11/13 06:22:24;;;;;;;6.22;4.10;;;;;;;11.19;58.85;102340.19;5137997;27;20047;-64
2022/11/13 06:24:52;;;;;;;6.10;3.72;;;;;;;11.33;58.43;102339.31;5142385;27;20043;-63
2022/11/13 06:27:20;;;;;;;5.88;4.05;;;;;;;11.47;57.91;102328.69;5138463;27;20051;-63
2022/11/13 06:29:47;;;;;;;6.90;4.63;;;;;;;11.48;57.59;102324.97;5144151;27;20063;-65
2022/11/13 06:32:15;;;;;;;5.88;4.03;;;;;;;11.41;57.96;102327.59;5143885;27;20058;-64
2022/11/13 06:34:43;;;;;;;6.53;4.07;;;;;;;11.29;58.07;102331.81;5132990;27;20047;-63
2022/11/13 06:37:12;;;;;;;7.05;3.97;;;;;;;11.15;58.50;102317.38;5141214;27;20043;-65
2022/11/13 06:39:39;;;;;;;8.18;4.65;;;;;;;11.06;58.75;102313.97;4784878;27;10000137;-62
2022/11/13 06:42:07;;;;;;;6.38;3.85;;;;;;;10.97;58.91;102317.78;5135258;27;20062;-62
2022/11/13 06:44:35;;;;;;;8.40;4.70;;;;;;;10.92;59.22;102317.50;5140127;27;20055;-62
2022/11/13 06:47:02;;;;;;;5.55;4.05;;;;;;;10.83;59.46;102320.50;5138400;27;20054;-63
2022/11/13 06:49:30;;;;;;;9.65;4.00;;;;;;;10.77;59.55;102328.28;5132229;27;20066;-63
2022/11/13 06:51:58;;;;;;;7.30;4.32;;;;;;;10.73;59.67;102329.69;5121738;27;20048;-63
2022/11/13 06:54:27;;;;;;;5.18;3.88;;;;;;;10.69;59.70;102319.47;5142614;27;20045;-63
2022/11/13 06:56:54;;;;;;;6.72;3.80;;;;;;;10.64;59.88;102320.03;5144234;27;20055;-62
2022/11/13 06:59:22;;;;;;;9.82;4.30;;;;;;;10.61;59.79;102322.28;5140474;27;20051;-63
2022/11/13 07:01:51;;;;;;;8.68;4.20;;;;;;;10.57;60.04;102313.75;5139891;27;20050;-62
2022/11/13 07:04:18;;;;;;;6.82;4.10;;;;;;;10.56;59.96;102314.75;5132234;27;20062;-63
2022/11/13 07:06:46;;;;;;;7.13;4.25;;;;;;;10.51;59.91;102317.16;5124812;27;20043;-62
2022/11/13 07:09:14;;;;;;;7.43;4.15;;;;;;;10.49;59.98;102321.06;5126974;27;20063;-62
2022/11/13 07:11:43;;;;;;;6.65;4.13;;;;;;;10.45;59.90;102320.59;5129660;27;20043;-62
2022/11/13 07:14:12;;;;;;;7.32;4.30;;;;;;;10.41;59.83;102322.00;5135768;27;20047;-62
2022/11/13 07:16:40;;;;;;;6.63;4.68;;;;;;;10.40;60.18;102321.16;5130809;27;20051;-63
2022/11/13 07:19:27;;;;;;;7.57;4.38;;;;;;;10.38;60.17;102317.00;5134099;27;20047;-62
2022/11/13 07:21:55;;;;;;;7.15;4.30;;;;;;;10.35;60.26;102318.22;5119615;28;20075;-63
2022/11/13 07:24:23;;;;;;;6.55;4.65;;;;;;;10.35;60.07;102312.84;5119752;28;20059;-63
2022/11/13 07:26:52;;;;;;;5.75;4.03;;;;;;;10.32;60.11;102310.53;5138347;27;20073;-63
2022/11/13 07:29:19;;;;;;;6.28;3.92;;;;;;;10.31;60.36;102299.97;5139965;27;20047;-62
2022/11/13 07:31:47;;;;;;;5.35;3.65;;;;;;;10.29;60.17;102305.50;5128324;27;20055;-63
2022/11/13 07:34:15;;;;;;;7.43;4.45;;;;;;;10.26;60.19;102303.19;5119548;28;20043;-63
2022/11/13 07:36:42;;;;;;;8.32;4.80;;;;;;;10.29;60.36;102299.31;5132013;27;20054;-62
2022/11/13 07:39:10;;;;;;;9.23;4.35;;;;;;;10.29;60.37;102302.00;5131701;27;20054;-62
2022/11/13 07:41:38;;;;;;;7.40;4.55;;;;;;;10.29;60.20;102310.88;5139759;27;20396;-63
2022/11/13 07:44:07;;;;;;;7.50;4.10;;;;;;;10.27;60.38;102310.25;5137057;27;20047;-63
2022/11/13 07:46:37;;;;;;;6.53;4.20;;;;;;;10.26;60.19;102305.06;5131451;27;20126;-62
2022/11/13 07:49:05;;;;;;;8.57;4.82;;;;;;;10.24;60.31;102299.84;5119355;28;20055;-59
2022/11/13 07:51:33;;;;;;;9.45;4.40;;;;;;;10.22;60.53;102298.38;5118609;28;20058;-64
2022/11/13 07:54:01;;;;;;;9.85;4.72;;;;;;;10.21;60.16;102297.53;5132489;27;20082;-62
2022/11/13 07:56:28;;;;;;;6.53;4.55;;;;;;;10.21;60.57;102294.84;5138704;27;20054;-61
2022/11/13 07:58:56;;;;;;;8.80;4.28;;;;;;;10.20;60.44;102293.19;5135345;27;20055;-61
2022/11/13 08:01:25;;;;;;;7.70;4.55;;;;;;;10.20;60.55;102298.56;5138305;27;20039;-61
2022/11/13 08:03:53;;;;;;;5.57;4.00;;;;;;;10.20;60.60;102292.34;5137843;27;20104;-61
2022/11/13 08:06:22;;;;;;;7.30;4.32;;;;;;;10.21;60.61;102286.78;5132802;27;20052;-62
2022/11/13 08:08:50;;;;;;;5.85;4.10;;;;;;;10.20;60.60;102282.44;5119284;28;20055;-62
2022/11/13 08:11:18;;;;;;;7.20;4.70;;;;;;;10.19;60.75;102294.16;5119013;28;20052;-60
2022/11/13 08:13:46;;;;;;;8.43;4.43;;;;;;;10.18;61.07;102292.50;5129189;27;20057;-61
2022/11/13 08:16:13;;;;;;;7.07;4.40;;;;;;;10.15;61.01;102289.34;5117754;28;20120;-61
2022/11/13 08:18:42;;;;;;;6.80;4.45;;;;;;;10.17;61.26;102292.69;5118741;28;20352;-61
2022/11/13 08:21:10;;;;;;;7.03;4.38;;;;;;;10.17;60.83;102295.38;5118548;28;20571;-61
2022/11/13 08:23:42;;;;;;;8.95;4.22;;;;;;;10.17;61.23;102287.31;5124807;28;20099;-61
2022/11/13 08:26:10;;;;;;;8.38;4.47;;;;;;;10.18;60.97;102276.38;5149757;27;20047;-61
2022/11/13 08:28:38;;;;;;;6.63;3.97;;;;;;;10.19;61.27;102271.84;5149025;27;20087;-61
2022/11/13 08:31:10;;;;;;;7.65;3.83;;;;;;;10.20;60.97;102273.53;5154995;27;20054;-63
2022/11/13 08:33:38;;;;;;;5.97;3.85;;;;;;;10.19;61.08;102272.69;5140410;27;20058;-61
2022/11/13 08:36:09;;;;;;;8.02;4.70;;;;;;;10.20;61.37;102270.84;5133575;28;20067;-61
2022/11/13 08:38:37;;;;;;;6.00;3.95;;;;;;;10.17;61.17;102265.81;5118340;28;20485;-61
2022/11/13 08:41:06;;;;;;;5.80;4.40;;;;;;;10.23;61.23;102281.25;5137666;28;20050;-60
2022/11/13 08:43:36;;;;;;;6.63;3.90;;;;;;;10.22;60.86;102280.41;5141222;28;20061;-61
2022/11/13 08:46:03;;;;;;;8.02;5.00;;;;;;;10.26;61.23;102283.56;5147696;27;20500;-61
2022/11/13 08:48:31;;;;;;;5.97;4.07;;;;;;;10.27;60.96;102280.69;5163350;27;20050;-61
2022/11/13 08:50:59;;;;;;;6.15;4.13;;;;;;;10.26;60.96;102276.31;5160481;27;20400;-64
2022/11/13 08:53:28;;;;;;;7.15;4.32;;;;;;;10.29;61.19;102273.28;5130807;28;20054;-62
2022/11/13 08:56:00;;;;;;;7.97;4.10;;;;;;;10.29;61.07;102270.59;5140082;28;20047;-61
2022/11/13 08:58:27;;;;;;;7.40;4.35;;;;;;;10.30;61.34;102266.03;5140777;28;20504;-60
2022/11/13 09:01:00;;;;;;;7.55;4.20;;;;;;;10.32;61.12;102269.38;5141738;28;20055;-60
2022/11/13 09:03:28;;;;;;;6.68;3.63;;;;;;;10.32;61.24;102261.31;5132769;28;20070;-60
2022/11/13 09:05:55;;;;;;;6.85;4.10;;;;;;;10.32;61.06;102264.84;5143141;27;20047;-60
2022/11/13 09:08:23;;;;;;;6.35;3.95;;;;;;;10.32;61.38;102270.22;5146331;27;20051;-61
2022/11/13 09:10:52;;;;;;;7.18;4.40;;;;;;;10.37;61.27;102265.13;5142065;27;20077;-61
2022/11/13 09:13:20;;;;;;;4.93;3.53;;;;;;;10.51;60.98;102267.94;5133390;27;20047;-62
2022/11/13 09:15:48;;;;;;;5.97;3.95;;;;;;;10.63;60.80;102256.53;5145589;27;20047;-62
2022/11/13 09:18:15;;;;;;;7.50;4.18;;;;;;;10.75;60.28;102254.19;5145894;27;20058;-62
2022/11/13 09:20:43;;;;;;;8.20;3.70;;;;;;;10.92;59.77;102255.66;5142343;27;20044;-61
2022/11/13 09:23:11;;;;;;;5.30;3.72;;;;;;;11.06;59.63;102254.78;5128170;27;20050;-61
2022/11/13 09:25:38;;;;;;;8.30;4.35;;;;;;;11.22;59.16;102245.63;5145998;27;20502;-62
2022/11/13 09:28:08;;;;;;;6.30;3.70;;;;;;;11.25;58.76;102247.09;5145467;27;20058;-61
2022/11/13 09:30:38;;;;;;;5.88;3.38;;;;;;;11.23;59.04;102241.06;5133184;27;20400;-61
2022/11/13 09:33:06;;;;;;;5.20;3.38;;;;;;;11.18;59.19;102243.50;5124774;28;20077;-62
2022/11/13 09:35:34;;;;;;;4.72;3.42;;;;;;;11.12;59.65;102250.47;5145524;27;20046;-61
2022/11/13 09:38:03;;;;;;;5.63;3.50;;;;;;;11.07;59.85;102251.06;5133598;27;20508;-61
2022/11/13 09:40:42;;;;;;;7.53;3.97;;;;;;;11.00;60.04;102246.63;5125235;28;20384;-61
2022/11/13 09:43:22;;;;;;;5.13;3.17;;;;;;;10.95;60.26;102249.06;5127934;27;20050;-61
2022/11/13 09:45:53;;;;;;;7.22;3.55;;;;;;;10.89;60.75;102247.97;5131192;27;20162;-62
2022/11/13 09:48:28;;;;;;;5.30;3.15;;;;;;;10.86;60.90;102248.34;5124738;28;20504;-61
2022/11/13 09:50:59;;;;;;;6.90;3.15;;;;;;;10.86;60.96;102251.03;5124665;27;20083;-62
2022/11/13 09:53:34;;;;;;;7.90;3.42;;;;;;;10.85;61.17;102254.72;5126997;27;20043;-61
2022/11/13 09:56:14;;;;;;;4.40;2.95;;;;;;;10.83;61.56;102251.41;5139215;27;20271;-61
2022/11/13 09:58:48;;;;;;;5.15;3.38;;;;;;;10.81;61.45;102248.06;5130444;27;20046;-61
2022/11/13 10:01:23;;;;;;;5.10;3.00;;;;;;;10.79;61.66;102252.81;5144535;27;20077;-62
2022/11/13 10:03:58;;;;;;;5.68;4.03;;;;;;;10.78;61.90;102245.75;5144307;27;20039;-62
2022/11/13 10:06:40;;;;;;;6.30;3.60;;;;;;;10.77;61.77;102244.91;5125019;27;20047;-61
2022/11/13 10:09:19;;;;;;;5.60;3.60;;;;;;;10.78;61.92;102243.06;5124780;28;20040;-61
2022/11/13 10:11:52;;;;;;;7.05;3.42;;;;;;;10.78;61.67;102248.44;5124167;27;20054;-62
2022/11/13 10:14:29;;;;;;;6.05;3.30;;;;;;;10.77;62.01;102244.91;5133252;27;20516;-61
2022/11/13 10:16:58;;;;;;;;;;;;;;;10.77;62.10;102236.03;5142758;27;20048;-61
2022/11/13 10:19:34;;;;;;;5.43;3.33;;;;;;;10.78;62.08;102240.38;5144462;27;19919;-61
2022/11/13 10:22:05;;;;;;;4.30;3.08;;;;;;;10.78;62.30;102240.38;5128956;27;20055;-62
2022/11/13 10:24:59;;;;;;;5.72;3.25;;;;;;;10.81;62.34;102239.16;5124096;28;20048;-61
2022/11/13 10:27:27;;;;;;;6.18;3.42;;;;;;;10.81;62.38;102239.16;5130981;27;20039;-62
2022/11/13 10:29:57;;;;;;;5.60;4.32;;;;;;;10.81;62.43;102237.31;5143964;27;20077;-61
2022/11/13 10:32:27;;;;;;;5.32;3.75;;;;;;;10.77;62.19;102222.56;5143948;27;20045;-62
2022/11/13 10:35:01;;;;;;;5.10;3.00;;;;;;;10.84;62.40;102230.72;5130205;27;20067;-62
2022/11/13 10:37:43;;;;;;;6.68;3.83;;;;;;;10.85;62.51;102221.63;5126291;27;20044;-62
2022/11/13 10:40:10;;;;;;;5.03;3.58;;;;;;;10.86;62.39;102223.28;5123844;28;20229;-62
2022/11/13 10:42:41;;;;;;;5.70;3.20;;;;;;;10.87;62.78;102215.03;5123789;28;20063;-62
2022/11/13 10:45:18;;;;;;;6.68;3.60;;;;;;;10.89;62.50;102214.84;5134970;27;20456;-62
2022/11/13 10:47:48;;;;;;;4.07;3.28;;;;;;;10.92;62.67;102214.47;5123421;28;20765;-62
2022/11/13 10:50:31;;;;;;;5.75;3.45;;;;;;;10.94;62.45;102204.34;5123576;27;20201;-61
2022/11/13 10:52:59;;;;;;;5.32;3.83;;;;;;;10.96;62.34;102196.91;5123358;28;20047;-61
2022/11/13 10:55:37;;;;;;;5.85;4.05;;;;;;;10.98;62.47;102201.09;5126575;27;20043;-61
2022/11/13 10:58:13;;;;;;;8.98;3.10;;;;;;;11.01;62.42;102200.69;5133850;27;20048;-62
2022/11/13 11:00:46;;;;;;;;;;;;;;;11.02;62.43;102188.09;5138275;27;20451;-62
2022/11/13 11:03:15;;;;;;;6.82;3.28;;;;;;;11.04;62.50;102183.34;5130569;27;19967;-62
2022/11/13 11:05:53;;;;;;;5.18;3.45;;;;;;;11.09;62.38;102186.28;5125418;27;20065;-62
2022/11/13 11:08:24;;;;;;;4.57;3.25;;;;;;;11.08;62.42;102180.06;5126886;27;20047;-62
2022/11/13 11:13:45;;;;;;;5.47;3.33;;;;;;;11.16;62.58;102171.03;5122927;28;20057;-62
2022/11/13 11:16:20;;;;;;;6.75;3.35;;;;;;;11.18;62.76;102163.59;5139633;27;20046;-62
2022/11/13 11:18:53;;;;;;;6.88;3.40;;;;;;;11.22;62.68;102164.06;5143676;27;20052;-62
2022/11/13 11:21:25;;;;;;;5.38;3.67;;;;;;;11.22;62.66;102172.97;5143454;27;20065;-62
2022/11/13 11:23:57;;;;;;;5.95;3.08;;;;;;;11.26;62.82;102173.41;5136682;27;20043;-62
2022/11/13 11:26:31;;;;;;;6.30;3.55;;;;;;;11.28;62.66;102163.28;5138079;27;20043;-62
2022/11/13 11:29:13;;;;;;;5.15;3.38;;;;;;;11.30;62.49;102164.75;5143118;27;20047;-62
2022/11/13 11:31:51;;;;;;;5.03;3.30;;;;;;;11.33;62.78;102160.84;5123041;28;20079;-62
2022/11/13 11:34:23;;;;;;;6.18;3.20;;;;;;;11.36;62.70;102169.34;5122611;27;20181;-62
2022/11/13 11:36:59;;;;;;;5.03;3.10;;;;;;;11.39;62.85;102160.91;5137130;27;20450;-62